Time;durP1;ratioP1;P1;durP2;ratioP2;P2;SDS_P1;SDS_P2;PMS_P1;PMS_P2;Temp;Humidity;BMP_temperature;BMP_pressure;BME280_temperature;BME280_humidity;BME280_pressure;Samples;Min_cycle;Max_cycle;Signal;HPM_P1;HPM_P2
2023/03/01 00:00:10;;;;;;;;;;;;;;;2.14;71.10;100916.34;5026711;28;19944;-63
2023/03/01 00:02:36;;;;;;;;;;;;;;;2.11;71.99;100918.94;5021891;28;20574;-63
2023/03/01 00:05:01;;;;;;;;;;;;;;;2.08;72.25;100930.25;5022012;28;19993;-63
2023/03/01 00:07:26;;;;;;;;;;;;;;;2.03;73.03;100937.16;5019710;28;19936;-63
2023/03/01 00:09:52;;;;;;;;;;;;;;;2.02;72.64;100930.16;5025231;28;20052;-63
2023/03/01 00:12:17;;;;;;;;;;;;;;;2.06;72.36;100926.69;5025103;28;19935;-64
2023/03/01 00:14:42;;;;;;;;;;;;;;;2.00;73.18;100926.63;5027699;28;19978;-63
2023/03/01 00:17:07;;;;;;;;;;;;;;;1.98;72.62;100933.56;5016212;28;19924;-63
2023/03/01 00:19:33;;;;;;;;;;;;;;;1.98;72.36;100933.56;5022725;28;20017;-63
2023/03/01 00:21:58;;;;;;;;;;;;;;;1.96;72.68;100931.81;5027692;28;20012;-63
2023/03/01 00:24:23;;;;;;;;;;;;;;;1.95;72.25;100925.66;5027830;28;20789;-63
2023/03/01 00:26:52;;;;;;;;;;;;;;;1.93;73.85;100922.13;5029208;28;19917;-64
2023/03/01 00:29:17;;;;;;;;;;;;;;;1.95;72.81;100923.03;5033773;28;20004;-64
2023/03/01 00:31:42;;;;;;;;;;;;;;;1.93;73.68;100927.38;5032518;28;20373;-65
2023/03/01 00:34:09;;;;;;;;;;;;;;;1.90;73.41;100923.81;5032324;28;19921;-64
2023/03/01 00:36:35;;;;;;;;;;;;;;;1.85;74.07;100920.22;5011484;28;19913;-64
2023/03/01 00:39:01;;;;;;;;;;;;;;;1.82;73.93;100920.19;5023285;28;19916;-64
2023/03/01 00:41:27;;;;;;;;;;;;;;;1.83;73.56;100921.97;5028298;28;20288;-64
2023/03/01 00:43:53;;;;;;;;;;;;;;;1.80;74.01;100922.78;5028237;28;19979;-63
2023/03/01 00:46:19;;;;;;;;;;;;;;;1.84;73.20;100929.84;5027332;28;20536;-64
2023/03/01 00:48:45;;;;;;;;;;;;;;;1.84;74.14;100919.38;5028676;28;20357;-64
2023/03/01 00:51:12;;;;;;;;;;;;;;;1.81;72.91;100923.66;5027343;28;19955;-62
2023/03/01 00:53:38;;;;;;;;;;;;;;;1.84;72.91;100914.13;5027697;28;19921;-64
2023/03/01 00:56:04;;;;;;;;;;;;;;;1.86;73.77;100917.63;5024669;28;19921;-64
2023/03/01 00:58:29;;;;;;;;;;;;;;;1.86;72.70;100922.88;5022320;28;19918;-64
2023/03/01 01:00:57;;;;;;;;;;;;;;;1.85;73.09;100923.75;5024239;28;19921;-63
2023/03/01 01:03:24;;;;;;;;;;;;;;;1.87;72.63;100916.78;5025522;28;19956;-63
2023/03/01 01:05:50;;;;;;;;;;;;;;;1.85;73.93;100910.63;5024552;28;20355;-64
2023/03/01 01:08:15;;;;;;;;;;;;;;;1.79;74.24;100913.16;5026633;28;19936;-64
2023/03/01 01:10:42;;;;;;;;;;;;;;;1.78;73.67;100897.41;5026660;28;19999;-64
2023/03/01 01:13:08;;;;;;;;;;;;;;;1.77;74.16;100896.50;5024909;28;19917;-64
2023/03/01 01:15:34;;;;;;;;;;;;;;;1.76;74.13;100894.75;5026344;28;19917;-64
2023/03/01 01:17:59;;;;;;;;;;;;;;;1.77;74.17;100896.50;5026526;28;19921;-64
2023/03/01 01:20:24;;;;;;;;;;;;;;;1.79;73.24;100896.53;5026862;28;19932;-64
2023/03/01 01:22:51;;;;;;;;;;;;;;;1.79;73.44;100900.03;5026353;28;19921;-64
2023/03/01 01:25:16;;;;;;;;;;;;;;;1.80;73.33;100895.66;5027009;28;19921;-64
2023/03/01 01:27:41;;;;;;;;;;;;;;;1.78;73.37;100900.88;5012774;28;20299;-64
2023/03/01 01:30:07;;;;;;;;;;;;;;;1.79;74.33;100900.03;5007877;28;19917;-64
2023/03/01 01:32:32;;;;;;;;;;;;;;;1.80;74.03;100895.66;5009227;28;19944;-64
2023/03/01 01:34:57;;;;;;;;;;;;;;;1.82;73.90;100883.47;5010123;28;19913;-63
2023/03/01 01:37:30;;;;;;;;;;;;;;;1.76;73.99;100878.13;5009469;28;19917;-64
2023/03/01 01:39:56;;;;;;;;;;;;;;;1.77;73.70;100880.78;5022933;28;19975;-64
2023/03/01 01:42:21;;;;;;;;;;;;;;;1.75;74.48;100887.72;5031265;28;19921;-64
2023/03/01 01:44:47;;;;;;;;;;;;;;;1.76;73.73;100894.75;5031575;28;19979;-65
2023/03/01 01:47:14;;;;;;;;;;;;;;;1.70;75.07;100884.16;5031025;28;19922;-64
2023/03/01 01:49:48;;;;;;;;;;;;;;;1.67;75.01;100881.47;5030276;28;19982;-64
2023/03/01 01:52:34;;;;;;;;;;;;;;;1.71;74.17;100885.03;5031277;28;20681;-64
2023/03/01 01:55:07;;;;;;;;;;;;;;;1.68;74.66;100890.22;5029114;28;20713;-65
2023/03/01 01:57:38;;;;;;;;;;;;;;;1.61;75.88;100877.88;5029491;28;19913;-64
2023/03/01 02:00:07;;;;;;;;;;;;;;;1.65;75.49;100877.94;5027224;28;19921;-64
2023/03/01 02:02:33;;;;;;;;;;;;;;;1.63;74.77;100871.78;5022006;28;19933;-61
2023/03/01 02:05:03;;;;;;;;;;;;;;;1.58;75.80;100865.59;5018356;28;19932;-61
2023/03/01 02:07:29;;;;;;;;;;;;;;;1.56;75.12;100871.66;5028927;28;19921;-60
2023/03/01 02:09:55;;;;;;;;;;;;;;;1.59;75.84;100869.09;5031304;28;19914;-61
2023/03/01 02:12:22;;;;;;;;;;;;;;;1.51;75.72;100868.97;5031708;28;19971;-61
2023/03/01 02:14:48;;;;;;;;;;;;;;;1.50;75.89;100867.19;5032566;28;19913;-61
2023/03/01 02:17:14;;;;;;;;;;;;;;;1.50;76.45;100864.56;5031090;28;19917;-61
2023/03/01 02:19:47;;;;;;;;;;;;;;;1.46;76.82;100854.91;5031822;28;19917;-61
2023/03/01 02:22:18;;;;;;;;;;;;;;;1.45;76.19;100850.50;5031745;28;19962;-61
2023/03/01 02:24:56;;;;;;;;;;;;;;;1.48;76.96;100855.81;5029588;28;20025;-61
2023/03/01 02:27:24;;;;;;;;;;;;;;;1.48;76.10;100855.81;5011924;28;19920;-61
2023/03/01 02:29:50;;;;;;;;;;;;;;;1.45;76.30;100855.75;5017358;28;19991;-60
2023/03/01 02:32:16;;;;;;;;;;;;;;;1.44;76.67;100855.72;5031856;28;20384;-61
2023/03/01 02:34:42;;;;;;;;;;;;;;;1.40;77.15;100849.53;5024921;28;19962;-60
2023/03/01 02:37:20;;;;;;;;;;;;;;;1.39;77.04;100850.41;5030796;28;19920;-61
2023/03/01 02:39:50;;;;;;;;;;;;;;;1.37;76.92;100846.88;5031753;28;19913;-61
2023/03/01 02:42:23;;;;;;;;;;;;;;;1.36;76.53;100839.88;5023749;28;19918;-61
2023/03/01 02:44:49;;;;;;;;;;;;;;;1.33;77.70;100850.31;5014638;28;19925;-61
2023/03/01 02:47:15;;;;;;;;;;;;;;;1.33;77.45;100845.06;5031380;28;19928;-61
2023/03/01 02:49:40;;;;;;;;;;;;;;;1.30;78.36;100829.31;5030390;28;20025;-61
2023/03/01 02:52:14;;;;;;;;;;;;;;;1.27;78.82;100839.69;5030627;28;19917;-61
2023/03/01 02:54:59;;;;;;;;;;;;;;;1.23;78.14;100828.31;5031536;28;20454;-61
2023/03/01 02:57:27;;;;;;;;;;;;;;;1.21;78.91;100830.00;5012011;28;19924;-60
2023/03/01 02:59:54;;;;;;;;;;;;;;;1.16;79.24;100813.34;5030953;28;20273;-61
2023/03/01 03:02:35;;;;;;;;;;;;;;;1.17;79.06;100811.59;5030906;28;20487;-60
2023/03/01 03:05:01;;;;;;;;;;;;;;;1.19;79.59;100812.50;5029849;28;20076;-61
2023/03/01 03:07:27;;;;;;;;;;;;;;;1.22;79.46;100820.41;5010840;28;19944;-61
2023/03/01 03:09:52;;;;;;;;;;;;;;;1.18;79.49;100808.13;5028961;28;19917;-61
2023/03/01 03:12:17;;;;;;;;;;;;;;;1.16;79.68;100809.81;5030086;28;19913;-61
2023/03/01 03:14:42;;;;;;;;;;;;;;;1.17;79.67;100806.38;5029919;28;19917;-61
2023/03/01 03:17:08;;;;;;;;;;;;;;;1.13;79.98;100804.53;5028901;28;20411;-61
2023/03/01 03:19:33;;;;;;;;;;;;;;;1.13;79.92;100804.53;5029876;28;19963;-61
2023/03/01 03:21:59;;;;;;;;;;;;;;;1.10;79.57;100804.47;5030051;28;19921;-61
2023/03/01 03:24:24;;;;;;;;;;;;;;;1.07;80.62;100800.06;5030737;28;19925;-61
2023/03/01 03:26:49;;;;;;;;;;;;;;;1.06;80.71;100792.19;5031050;28;19917;-61
2023/03/01 03:29:14;;;;;;;;;;;;;;;1.05;80.47;100808.75;5029124;28;19979;-61
2023/03/01 03:31:40;;;;;;;;;;;;;;;1.08;79.69;100798.31;5030720;28;19940;-61
2023/03/01 03:34:05;;;;;;;;;;;;;;;1.12;80.02;100793.16;5030325;28;19913;-61
2023/03/01 03:36:30;;;;;;;;;;;;;;;1.06;79.76;100781.69;5029925;28;19921;-60
2023/03/01 03:38:55;;;;;;;;;;;;;;;1.10;80.52;100783.53;5030693;28;19916;-60
2023/03/01 03:41:21;;;;;;;;;;;;;;;1.08;80.22;100785.22;5029933;28;19924;-60
2023/03/01 03:43:46;;;;;;;;;;;;;;;1.06;80.82;100781.69;5030398;28;19936;-61
2023/03/01 03:46:12;;;;;;;;;;;;;;;1.08;80.73;100786.13;5030749;28;20319;-60
2023/03/01 03:48:42;;;;;;;;;;;;;;;1.09;79.86;100786.97;5029921;28;20324;-60
2023/03/01 03:51:10;;;;;;;;;;;;;;;1.11;80.85;100785.28;5014112;28;19952;-61
2023/03/01 03:53:35;;;;;;;;;;;;;;;1.11;80.76;100780.03;5029593;28;19921;-61
2023/03/01 03:56:00;;;;;;;;;;;;;;;1.06;80.22;100779.06;5030508;28;20419;-61
2023/03/01 03:58:26;;;;;;;;;;;;;;;1.07;79.78;100778.25;5020899;28;19982;-61
2023/03/01 04:00:52;;;;;;;;;;;;;;;1.07;80.10;100773.00;5029208;28;20308;-61
2023/03/01 04:03:18;;;;;;;;;;;;;;;1.04;80.57;100773.81;5029852;28;20013;-61
2023/03/01 04:05:44;;;;;;;;;;;;;;;1.05;80.65;100774.72;5017387;28;19921;-61
2023/03/01 04:08:10;;;;;;;;;;;;;;;1.03;80.40;100771.16;5027621;28;19936;-61
2023/03/01 04:10:40;;;;;;;;;;;;;;;1.01;80.06;100772.88;5029878;28;19960;-61
2023/03/01 04:13:05;;;;;;;;;;;;;;;0.99;80.09;100759.75;5029042;28;19975;-60
2023/03/01 04:15:32;;;;;;;;;;;;;;;1.00;80.75;100771.13;5028454;28;20532;-61
2023/03/01 04:17:58;;;;;;;;;;;;;;;1.02;80.41;100764.19;5028923;28;19921;-61
2023/03/01 04:20:25;;;;;;;;;;;;;;;1.01;80.31;100768.53;5029485;28;19913;-61
2023/03/01 04:23:10;;;;;;;;;;;;;;;1.02;80.18;100761.56;5010304;28;20282;-60
2023/03/01 04:25:55;;;;;;;;;;;;;;;1.00;80.20;100760.66;5028726;28;19932;-61
2023/03/01 04:28:26;;;;;;;;;;;;;;;0.99;80.61;100759.75;5029477;28;19944;-61
2023/03/01 04:30:53;;;;;;;;;;;;;;;0.93;81.40;100766.63;5029109;28;20031;-61
2023/03/01 04:33:18;;;;;;;;;;;;;;;0.94;81.57;100764.03;5019091;28;19923;-60
2023/03/01 04:35:44;;;;;;;;;;;;;;;0.92;81.74;100757.88;5014392;28;20000;-61
2023/03/01 04:38:09;;;;;;;;;;;;;;;0.96;80.85;100758.81;5028998;28;19959;-61
2023/03/01 04:40:35;;;;;;;;;;;;;;;0.92;81.01;100757.03;5029793;28;19917;-61
2023/03/01 04:43:01;;;;;;;;;;;;;;;0.95;81.31;100759.69;5026695;28;19917;-60
2023/03/01 04:45:27;;;;;;;;;;;;;;;0.91;80.46;100757.84;5024226;28;20019;-61
2023/03/01 04:47:53;;;;;;;;;;;;;;;0.83;81.27;100747.25;5009961;28;19940;-60
2023/03/01 04:50:20;;;;;;;;;;;;;;;0.79;82.37;100749.81;5020687;28;19964;-60
2023/03/01 04:52:46;;;;;;;;;;;;;;;0.78;82.87;100746.28;5029552;28;19921;-61
2023/03/01 04:55:11;;;;;;;;;;;;;;;0.76;83.11;100754.94;5028840;28;19996;-62
2023/03/01 04:57:37;;;;;;;;;;;;;;;0.75;82.45;100748.88;5028335;28;19921;-62
2023/03/01 05:00:19;;;;;;;;;;;;;;;0.75;82.47;100742.72;5029411;28;20354;-61
2023/03/01 05:02:45;;;;;;;;;;;;;;;0.76;83.40;100752.34;5029548;28;19953;-62
2023/03/01 05:05:10;;;;;;;;;;;;;;;0.77;83.07;100751.50;5028313;28;20699;-61
2023/03/01 05:07:35;;;;;;;;;;;;;;;0.74;82.41;100754.06;5028540;28;20008;-62
2023/03/01 05:10:00;;;;;;;;;;;;;;;0.75;83.04;100764.56;5028590;28;20435;-62
2023/03/01 05:12:26;;;;;;;;;;;;;;;0.78;83.70;100763.72;5030266;28;19923;-61
2023/03/01 05:14:51;;;;;;;;;;;;;;;0.79;82.98;100749.81;5033368;28;19921;-62
2023/03/01 05:17:16;;;;;;;;;;;;;;;0.81;83.37;100755.91;5014725;28;19921;-62
2023/03/01 05:19:42;;;;;;;;;;;;;;;0.79;83.34;100755.03;5033080;28;19913;-62
2023/03/01 05:22:07;;;;;;;;;;;;;;;0.82;82.86;100752.47;5032596;28;20723;-62
2023/03/01 05:24:34;;;;;;;;;;;;;;;0.84;83.05;100742.91;5033141;28;19952;-62
2023/03/01 05:27:00;;;;;;;;;;;;;;;0.86;82.74;100746.41;5032857;28;20368;-62
2023/03/01 05:29:26;;;;;;;;;;;;;;;0.81;83.75;100753.31;5031596;28;19928;-62
2023/03/01 05:31:53;;;;;;;;;;;;;;;0.79;83.14;100749.81;5032840;28;19917;-63
2023/03/01 05:34:19;;;;;;;;;;;;;;;0.78;83.36;100758.50;5032698;28;19914;-63
2023/03/01 05:36:44;;;;;;;;;;;;;;;0.78;83.36;100759.38;5032261;28;19921;-62
2023/03/01 05:39:09;;;;;;;;;;;;;;;0.80;84.24;100756.78;5032961;28;19917;-62
2023/03/01 05:41:35;;;;;;;;;;;;;;;0.82;83.90;100750.75;5032062;28;19920;-62
2023/03/01 05:44:00;;;;;;;;;;;;;;;0.80;83.46;100746.31;5032395;28;19925;-63
2023/03/01 05:46:25;;;;;;;;;;;;;;;0.82;84.17;100757.72;5032909;28;19960;-62
2023/03/01 05:48:50;;;;;;;;;;;;;;;0.74;84.20;100751.44;5031854;28;19925;-62
2023/03/01 05:51:16;;;;;;;;;;;;;;;0.72;84.81;100753.16;5032496;28;19909;-62
2023/03/01 05:53:41;;;;;;;;;;;;;;;0.73;84.97;100755.78;5031873;28;20027;-62
2023/03/01 05:56:07;;;;;;;;;;;;;;;0.73;84.35;100752.28;5032651;28;19920;-62
2023/03/01 05:58:32;;;;;;;;;;;;;;;0.74;84.13;100743.59;5032457;28;20238;-62
2023/03/01 06:00:57;;;;;;;;;;;;;;;0.71;83.70;100741.78;5029885;28;19924;-62
2023/03/01 06:03:22;;;;;;;;;;;;;;;0.71;84.02;100741.78;5028836;28;20011;-62
2023/03/01 06:05:48;;;;;;;;;;;;;;;0.72;83.68;100758.38;5032335;28;19913;-62
2023/03/01 06:08:13;;;;;;;;;;;;;;;0.67;84.08;100760.03;5010452;28;19967;-62
2023/03/01 06:10:39;;;;;;;;;;;;;;;0.75;83.81;100758.44;5012776;28;19920;-62
2023/03/01 06:13:04;;;;;;;;;;;;;;;0.75;82.74;100764.56;5011973;28;19925;-62
2023/03/01 06:15:29;;;;;;;;;;;;;;;0.75;83.79;100756.72;5009272;28;19925;-62
2023/03/01 06:17:56;;;;;;;;;;;;;;;0.72;83.31;100759.28;5009972;28;19917;-61
2023/03/01 06:20:23;;;;;;;;;;;;;;;0.71;83.49;100756.63;5010619;28;19953;-62
2023/03/01 06:22:49;;;;;;;;;;;;;;;0.74;83.91;100756.69;5010272;28;19917;-62
2023/03/01 06:25:15;;;;;;;;;;;;;;;0.79;83.93;100762.91;5011281;28;20292;-62
2023/03/01 06:27:41;;;;;;;;;;;;;;;0.79;83.15;100749.81;5011730;28;20468;-62
2023/03/01 06:30:07;;;;;;;;;;;;;;;0.87;83.39;100756.91;5010821;28;19924;-62
2023/03/01 06:32:33;;;;;;;;;;;;;;;0.87;82.80;100749.06;5004697;28;19925;-61
2023/03/01 06:34:59;;;;;;;;;;;;;;;0.92;83.12;100754.41;4998951;28;19917;-62
2023/03/01 06:37:24;;;;;;;;;;;;;;;0.95;83.79;100755.34;5027140;28;19918;-62
2023/03/01 06:39:50;;;;;;;;;;;;;;;1.01;82.77;100746.69;5011878;28;19918;-62
2023/03/01 06:42:15;;;;;;;;;;;;;;;1.00;82.50;100739.69;5002071;28;19922;-62
2023/03/01 06:44:40;;;;;;;;;;;;;;;1.04;82.76;100747.63;4997438;28;19929;-62
2023/03/01 06:47:06;;;;;;;;;;;;;;;1.10;82.25;100739.84;4992415;28;19921;-62
2023/03/01 06:49:31;;;;;;;;;;;;;;;1.17;82.25;100736.50;4996599;28;19917;-62
2023/03/01 06:51:56;;;;;;;;;;;;;;;1.29;81.65;100744.56;5011175;28;19971;-62
2023/03/01 06:54:22;;;;;;;;;;;;;;;1.32;81.51;100743.72;5011106;28;20333;-62
2023/03/01 06:56:48;;;;;;;;;;;;;;;1.36;80.73;100737.69;5009899;28;19914;-62
2023/03/01 06:59:13;;;;;;;;;;;;;;;1.43;80.64;100730.78;5010964;28;20407;-62
2023/03/01 07:01:39;;;;;;;;;;;;;;;1.48;80.17;100730.00;5009851;28;19920;-62
2023/03/01 07:04:04;;;;;;;;;;;;;;;1.55;80.03;100721.34;5024279;28;20004;-62
2023/03/01 07:06:29;;;;;;;;;;;;;;;1.65;79.71;100728.50;5011548;28;19925;-62
2023/03/01 07:08:55;;;;;;;;;;;;;;;1.69;80.07;100714.59;5025522;28;20003;-62
2023/03/01 07:11:20;;;;;;;;;;;;;;;1.82;79.35;100721.75;5013748;28;20027;-61
2023/03/01 07:13:45;;;;;;;;;;;;;;;2.07;79.72;100729.09;5031100;28;20311;-62
2023/03/01 07:16:11;;;;;;;;;;;;;;;3.09;81.06;100721.44;5028969;28;19924;-62
2023/03/01 07:18:36;;;;;;;;;;;;;;;5.01;71.54;100705.66;5031061;28;19921;-62
2023/03/01 07:21:05;;;;;;;;;;;;;;;6.43;59.38;100708.00;5030076;28;19929;-62
2023/03/01 07:23:31;;;;;;;;;;;;;;;7.29;55.07;100700.38;5029583;28;19936;-62
2023/03/01 07:25:56;;;;;;;;;;;;;;;7.77;52.71;100702.56;5012174;28;19913;-62
2023/03/01 07:28:24;;;;;;;;;;;;;;;8.33;50.89;100701.06;5029328;28;19913;-62
2023/03/01 07:30:50;;;;;;;;;;;;;;;8.97;49.50;100697.50;5027934;28;20659;-62
2023/03/01 07:33:15;;;;;;;;;;;;;;;8.80;48.27;100688.03;5028780;28;19921;-62
2023/03/01 07:35:40;;;;;;;;;;;;;;;8.65;47.70;100694.44;5027545;28;19925;-61
2023/03/01 07:38:06;;;;;;;;;;;;;;;7.21;50.06;100699.56;5028738;28;19920;-62
2023/03/01 07:40:31;;;;;;;;;;;;;;;6.64;53.45;100697.31;5028614;28;20612;-62
2023/03/01 07:42:57;;;;;;;;;;;;;;;7.13;52.52;100701.41;5030263;28;19913;-62
2023/03/01 07:45:23;;;;;;;;;;;;;;;7.62;51.30;100705.38;5030604;28;19917;-63
2023/03/01 07:47:49;;;;;;;;;;;;;;;6.80;52.56;100699.00;5030380;28;19936;-62
2023/03/01 07:50:15;;;;;;;;;;;;;;;7.92;51.01;100705.03;5021698;28;19928;-62
2023/03/01 07:52:40;;;;;;;;;;;;;;;9.22;49.16;100690.03;5017602;28;19947;-63
2023/03/01 07:55:06;;;;;;;;;;;;;;;10.44;44.61;100693.03;5027741;28;19920;-63
2023/03/01 07:57:31;;;;;;;;;;;;;;;10.94;43.42;100694.59;5027806;28;20449;-63
2023/03/01 07:59:56;;;;;;;;;;;;;;;10.24;43.12;100696.13;5011148;28;20007;-63
2023/03/01 08:02:22;;;;;;;;;;;;;;;9.15;45.83;100693.66;5018629;28;20031;-63
2023/03/01 08:04:47;;;;;;;;;;;;;;;8.49;46.95;100697.31;5020027;28;20540;-62
2023/03/01 08:07:12;;;;;;;;;;;;;;;7.64;49.00;100687.69;5018679;28;19920;-63
2023/03/01 08:09:37;;;;;;;;;;;;;;;6.73;51.72;100686.69;5008789;28;19932;-62
2023/03/01 08:12:04;;;;;;;;;;;;;;;6.26;53.62;100689.59;5026369;28;19921;-62
2023/03/01 08:14:29;;;;;;;;;;;;;;;6.48;55.48;100693.00;5029539;28;19927;-62
2023/03/01 08:16:55;;;;;;;;;;;;;;;7.00;53.38;100681.19;5008757;28;19921;-62
2023/03/01 08:19:20;;;;;;;;;;;;;;;7.31;54.55;100687.13;5028166;28;20534;-62
2023/03/01 08:21:45;;;;;;;;;;;;;;;7.76;51.59;100682.25;5026797;28;19986;-62
2023/03/01 08:24:11;;;;;;;;;;;;;;;7.44;51.55;100689.66;5028028;28;19929;-62
2023/03/01 08:26:37;;;;;;;;;;;;;;;7.16;51.21;100677.56;5027510;28;19918;-62
2023/03/01 08:29:03;;;;;;;;;;;;;;;7.29;51.21;100679.22;5028249;28;20384;-62
2023/03/01 08:31:35;;;;;;;;;;;;;;;7.95;50.41;100680.28;5010739;28;20412;-62
2023/03/01 08:34:01;;;;;;;;;;;;;;;9.33;48.75;100674.78;5019886;28;19917;-62
2023/03/01 08:36:28;;;;;;;;;;;;;;;10.19;46.67;100659.88;5028217;28;20347;-62
2023/03/01 08:38:53;;;;;;;;;;;;;;;11.14;44.36;100665.66;5030036;28;19917;-62
2023/03/01 08:41:22;;;;;;;;;;;;;;;11.60;42.88;100666.25;5029529;28;19917;-62
2023/03/01 08:43:47;;;;;;;;;;;;;;;11.86;41.75;100662.00;5028694;28;19968;-62
2023/03/01 08:46:13;;;;;;;;;;;;;;;11.66;40.58;100663.47;5029304;28;19964;-62
2023/03/01 08:48:38;;;;;;;;;;;;;;;12.02;41.06;100664.25;5028582;28;20380;-62
2023/03/01 08:51:08;;;;;;;;;;;;;;;12.43;40.80;100656.81;5032161;28;19921;-62
2023/03/01 08:53:33;;;;;;;;;;;;;;;13.10;40.53;100656.47;5031428;28;19958;-62
2023/03/01 08:56:04;;;;;;;;;;;;;;;12.39;39.21;100649.81;5030948;28;19920;-62
2023/03/01 08:58:29;;;;;;;;;;;;;;;12.53;39.22;100650.28;5031673;28;19921;-62
2023/03/01 09:00:56;;;;;;;;;;;;;;;12.77;39.70;100651.28;5032073;28;19921;-62
2023/03/01 09:03:21;;;;;;;;;;;;;;;12.67;39.98;100648.03;5032403;28;20349;-62
2023/03/01 09:05:49;;;;;;;;;;;;;;;13.35;39.40;100635.16;5031331;28;19964;-62
2023/03/01 09:08:14;;;;;;;;;;;;;;;12.70;39.26;100629.25;5027489;28;19925;-63
2023/03/01 09:10:39;;;;;;;;;;;;;;;13.58;39.66;100635.25;5032780;28;19924;-63
2023/03/01 09:13:05;;;;;;;;;;;;;;;13.02;37.95;100636.28;5031408;28;20759;-61
2023/03/01 09:15:30;;;;;;;;;;;;;;;12.84;39.44;100624.38;5031741;28;19975;-61
2023/03/01 09:17:55;;;;;;;;;;;;;;;12.31;39.20;100627.81;5009229;28;19929;-61
2023/03/01 09:20:20;;;;;;;;;;;;;;;12.10;40.95;100622.25;5016852;28;19921;-61
2023/03/01 09:22:46;;;;;;;;;;;;;;;12.15;40.11;100617.66;5031545;28;20250;-61
2023/03/01 09:25:11;;;;;;;;;;;;;;;12.50;41.37;100615.69;5030404;28;19999;-61
2023/03/01 09:27:37;;;;;;;;;;;;;;;12.73;40.71;100614.97;5030899;28;19921;-62
2023/03/01 09:30:02;;;;;;;;;;;;;;;12.47;40.23;100609.56;5031477;28;19956;-62
2023/03/01 09:32:29;;;;;;;;;;;;;;;12.35;40.78;100620.59;5030891;28;19921;-61
2023/03/01 09:35:00;;;;;;;;;;;;;;;12.53;40.45;100612.91;5031523;28;20293;-61
2023/03/01 09:37:26;;;;;;;;;;;;;;;13.01;39.54;100600.69;5031078;28;19932;-62
2023/03/01 09:39:51;;;;;;;;;;;;;;;12.94;39.27;100606.25;5030216;28;19925;-62
2023/03/01 09:42:16;;;;;;;;;;;;;;;12.73;40.57;100605.16;5025534;28;20316;-63
2023/03/01 09:44:51;;;;;;;;;;;;;;;12.99;39.37;100598.97;5029563;28;19925;-63
2023/03/01 09:47:21;;;;;;;;;;;;;;;13.14;39.21;100594.03;5027951;28;19971;-63
2023/03/01 09:49:58;;;;;;;;;;;;;;;13.24;38.53;100590.09;5029047;28;19924;-62
2023/03/01 09:52:32;;;;;;;;;;;;;;;13.21;38.84;100589.34;5029333;28;19925;-62
2023/03/01 09:54:57;;;;;;;;;;;;;;;13.28;39.88;100585.53;5016766;28;20004;-62
2023/03/01 09:57:23;;;;;;;;;;;;;;;13.76;39.69;100596.28;5030221;28;20007;-62
2023/03/01 09:59:54;;;;;;;;;;;;;;;13.84;38.39;100587.06;5030065;28;20280;-62
2023/03/01 10:02:19;;;;;;;;;;;;;;;13.75;38.85;100595.44;5011374;28;20387;-62
2023/03/01 10:04:47;;;;;;;;;;;;;;;13.05;38.93;100594.31;5030546;28;20020;-63
2023/03/01 10:07:15;;;;;;;;;;;;;;;13.71;39.10;100593.78;5029801;28;19983;-62
2023/03/01 10:09:43;;;;;;;;;;;;;;;13.82;39.23;100569.34;5030794;28;19960;-63
2023/03/01 10:12:26;;;;;;;;;;;;;;;14.12;38.21;100584.22;5027365;28;19967;-62
2023/03/01 10:14:57;;;;;;;;;;;;;;;14.06;37.89;100576.44;5012033;28;20294;-62
2023/03/01 10:17:36;;;;;;;;;;;;;;;14.29;37.61;100573.78;5029098;28;19917;-62
2023/03/01 10:20:16;;;;;;;;;;;;;;;14.07;37.25;100573.69;5022298;28;20040;-62
2023/03/01 10:22:42;;;;;;;;;;;;;;;13.83;37.05;100557.69;5019906;28;20636;-62
2023/03/01 10:25:12;;;;;;;;;;;;;;;13.45;38.90;100567.13;5031175;28;19956;-62
2023/03/01 10:28:04;;;;;;;;;;;;;;;13.85;38.56;100561.19;5013615;28;19918;-63
2023/03/01 10:30:34;;;;;;;;;;;;;;;14.12;38.12;100560.13;4986824;28;19921;-63
2023/03/01 10:32:59;;;;;;;;;;;;;;;14.52;38.07;100560.38;5022441;28;19963;-64
2023/03/01 10:35:26;;;;;;;;;;;;;;;14.71;37.34;100556.00;5008034;28;20365;-64
2023/03/01 10:37:58;;;;;;;;;;;;;;;14.59;38.26;100561.88;5011029;28;20064;-64
2023/03/01 10:40:23;;;;;;;;;;;;;;;14.77;36.67;100544.19;5013419;28;19918;-63
2023/03/01 10:42:49;;;;;;;;;;;;;;;14.74;35.74;100545.19;5015785;28;19921;-63
2023/03/01 10:45:35;;;;;;;;;;;;;;;14.43;37.19;100540.19;5031560;28;19921;-63
2023/03/01 10:48:14;;;;;;;;;;;;;;;14.05;38.88;100539.94;5028813;28;19948;-63
2023/03/01 10:50:44;;;;;;;;;;;;;;;14.49;37.18;100539.09;5030521;28;20624;-63
2023/03/01 10:53:31;;;;;;;;;;;;;;;14.57;37.44;100536.09;5029305;28;19921;-63
2023/03/01 10:55:58;;;;;;;;;;;;;;;14.89;37.29;100532.97;5029342;28;19917;-63
2023/03/01 10:58:23;;;;;;;;;;;;;;;14.59;37.50;100535.09;5029624;28;20428;-63
2023/03/01 11:01:03;;;;;;;;;;;;;;;15.05;36.65;100528.69;5031225;28;19971;-64
2023/03/01 11:03:30;;;;;;;;;;;;;;;15.29;35.62;100520.47;5030283;28;19931;-63
2023/03/01 11:05:58;;;;;;;;;;;;;;;15.02;37.58;100513.63;5031197;28;20381;-63
2023/03/01 11:08:34;;;;;;;;;;;;;;;14.85;35.62;100513.47;5030353;28;19932;-63
2023/03/01 11:11:12;;;;;;;;;;;;;;;14.73;35.94;100516.66;5030250;28;19917;-63
2023/03/01 11:13:46;;;;;;;;;;;;;;;15.22;35.76;100510.09;5029955;28;20011;-64
2023/03/01 11:16:12;;;;;;;;;;;;;;;15.29;34.95;100512.44;5031280;28;20384;-64
2023/03/01 11:18:37;;;;;;;;;;;;;;;15.45;36.43;100496.59;5031214;28;19913;-64
2023/03/01 11:21:03;;;;;;;;;;;;;;;15.55;36.69;100498.75;5029489;28;20020;-64
2023/03/01 11:23:30;;;;;;;;;;;;;;;15.51;37.48;100491.81;5029642;28;20001;-64
2023/03/01 11:25:58;;;;;;;;;;;;;;;16.23;35.70;100486.63;5030007;28;19999;-63
2023/03/01 11:28:25;;;;;;;;;;;;;;;15.90;34.71;100488.25;5027933;28;19917;-63
2023/03/01 11:30:50;;;;;;;;;;;;;;;15.80;34.12;100472.56;5027545;28;19917;-64
2023/03/01 11:33:23;;;;;;;;;;;;;;;15.33;36.50;100475.63;5029485;28;20391;-63
2023/03/01 11:35:55;;;;;;;;;;;;;;;15.25;36.07;100465.28;5029366;28;19917;-63
2023/03/01 11:38:22;;;;;;;;;;;;;;;15.49;35.73;100471.34;5012915;28;20011;-63
2023/03/01 11:40:52;;;;;;;;;;;;;;;15.57;35.82;100459.34;5029548;28;19921;-63
2023/03/01 11:43:21;;;;;;;;;;;;;;;15.65;35.28;100457.19;5019070;28;19917;-63
2023/03/01 11:45:55;;;;;;;;;;;;;;;16.19;35.34;100453.72;5010969;28;20448;-63
2023/03/01 11:48:46;;;;;;;;;;;;;;;16.00;34.14;100446.59;5028286;28;19929;-63
2023/03/01 11:51:24;;;;;;;;;;;;;;;16.00;34.97;100446.59;4986785;28;19921;-63
2023/03/01 11:53:56;;;;;;;;;;;;;;;16.15;34.29;100445.88;5024187;28;19921;-63
2023/03/01 11:56:39;;;;;;;;;;;;;;;15.89;34.15;100430.16;5030433;28;19920;-63
2023/03/01 11:59:28;;;;;;;;;;;;;;;16.21;35.17;100429.50;5029123;28;20031;-63
2023/03/01 12:02:12;;;;;;;;;;;;;;;16.12;34.21;100433.47;5030236;28;20384;-63
2023/03/01 12:04:40;;;;;;;;;;;;;;;16.26;34.81;100432.81;5029250;28;19921;-64
2023/03/01 12:07:12;;;;;;;;;;;;;;;16.15;35.25;100427.06;5030197;28;19924;-63
2023/03/01 12:09:38;;;;;;;;;;;;;;;15.98;35.01;100421.69;5028376;28;19957;-64
2023/03/01 12:12:17;;;;;;;;;;;;;;;15.86;36.37;100422.25;5014527;28;20058;-64
2023/03/01 12:14:42;;;;;;;;;;;;;;;15.66;34.99;100412.47;5010208;28;19939;-63
2023/03/01 12:17:22;;;;;;;;;;;;;;;15.40;35.20;100419.03;5027440;28;19917;-63
2023/03/01 12:20:14;;;;;;;;;;;;;;;15.89;35.00;100414.94;5029925;28;19921;-63
2023/03/01 12:22:39;;;;;;;;;;;;;;;15.91;34.60;100414.84;4985147;28;19992;-64
2023/03/01 12:25:13;;;;;;;;;;;;;;;15.76;34.41;100414.63;5010176;28;19984;-63
2023/03/01 12:27:50;;;;;;;;;;;;;;;16.08;35.81;100404.19;5019457;28;19917;-63
2023/03/01 12:30:21;;;;;;;;;;;;;;;16.17;35.85;100401.03;5029845;28;19948;-64
2023/03/01 12:32:54;;;;;;;;;;;;;;;16.14;35.02;100393.16;5028676;28;20004;-64
2023/03/01 12:35:38;;;;;;;;;;;;;;;15.76;35.67;100390.50;5029942;28;19974;-63
2023/03/01 12:38:12;;;;;;;;;;;;;;;16.16;34.64;100373.31;5029879;28;20580;-64
2023/03/01 12:40:53;;;;;;;;;;;;;;;16.06;33.86;100373.88;5025652;28;19924;-63
2023/03/01 12:43:37;;;;;;;;;;;;;;;16.22;34.90;100372.16;5029442;28;19928;-64
2023/03/01 12:46:14;;;;;;;;;;;;;;;16.26;33.65;100374.59;5024684;28;19921;-64